Rajadas de vento em Ilhéus (BA)

21/10/2011 às 12:25
por Aline Tochio

Oferecimento
Uma
frente fria que está avançando muito lentamente pela Bahia está provocando vento intenso na região de Ilhéus, no litoral. Neste momento o céu está cheio de nuvens na cidade e a temperatura é de 26ºC. O aeroporto local está registrando rajadas de 51 km/h.
 SBIL 211400Z 16014G28KT (16026G51KMH) 9999 BKN030 BKN070 26/19 Q1018

CIDADES RELACIONADAS

Ilhéus - BA

21°
min

29°
max

5mm / 90%

FASES DA LUA

  • Nova
    15/04
  • Crescente
    22/04
  • Cheia
    31/03
  • Minguante
    08/04

ESTAÇÕES DO ANO

  • Outono
    20/03
  • Inverno
    21/06
  • Primavera
    22/09
  • Verão
    21/12